»·PEaware :: N177CF KLBF-KBJC

N177CF :: KLBF-KBJC

FLIGHT INFORMATION

Flight Status: Arrived
Operator: Privately registered:
United States
More flights under this callsign
Pilot: Raphael S. (13144)
Aircraft: CESSNA 177 CARDINAL
(C177)
More flights by this aircraft type
Origin: KLBF North Platte Regl-Bird
United States
Destination: KBJC Jeffco
United States
More flights between these airports :: More routes between these airports
Route: ELJAY LANDR8
File this flight plan on PilotEdge
Remarks:
Altitude:
(Current/Filed)
8,000ft
Speed:
(Current/Filed)
150kts
Departed: 05-Feb-18 05:02 PM
Arrived: 05-Feb-18 06:52 PM
Distance/Time
Traveled:
215nm/1:50
Distance/Time
To Go:
Arrived

Flight Plot

Page will automatically refresh every two minutes.

Flight plan parsing failed; only flown route is shown


Map Options




Map Legend


Flown Route
Filed Route
Departure Airport
Arrival Airport
Navaid (VOR, NDB)
Fix

Horizontal Profiles

Position Reports

Time Latitude Longitude Heading Altitude Ground
Speed
05-Feb-18 16:58 41.132322 -100.698335 270 2780ft 0kts
05-Feb-18 16:59 41.132322 -100.698335 270 2780ft 0kts
05-Feb-18 16:59 41.132322 -100.698335 270 2780ft 0kts
05-Feb-18 17:01 41.132322 -100.698335 270 2780ft 0kts
05-Feb-18 17:01 41.132322 -100.698337 271 2780ft 0kts
05-Feb-18 17:02 41.131524 -100.697979 198 2780ft 1kts
05-Feb-18 17:04 41.131256 -100.698212 220 2780ft 2kts
05-Feb-18 17:04 41.131197 -100.699338 270 2780ft 4kts
05-Feb-18 17:06 41.131188 -100.701696 270 2780ft 6kts
05-Feb-18 17:06 41.131201 -100.700114 90 2780ft 24kts
05-Feb-18 17:07 41.130792 -100.692980 183 2780ft 0kts
05-Feb-18 17:08 41.119450 -100.693572 182 2887ft 83kts
05-Feb-18 17:09 41.111107 -100.718953 290 3573ft 88kts
05-Feb-18 17:10 41.120023 -100.748785 294 4345ft 85kts
05-Feb-18 17:11 41.128746 -100.774752 301 5157ft 77kts
05-Feb-18 17:12 41.137651 -100.799527 301 5958ft 77kts
05-Feb-18 17:13 41.146402 -100.824738 299 6760ft 75kts
05-Feb-18 17:14 41.153638 -100.850577 294 7508ft 76kts
05-Feb-18 17:15 41.159151 -100.877237 293 8223ft 76kts
05-Feb-18 17:16 41.165850 -100.910986 287 8440ft 99kts
05-Feb-18 17:17 41.172946 -100.954252 288 8306ft 126kts
05-Feb-18 17:18 41.175101 -101.002198 274 8229ft 134kts
05-Feb-18 17:19 41.184956 -101.047699 297 8160ft 128kts
05-Feb-18 17:20 41.198611 -101.090817 305 8149ft 124kts
05-Feb-18 17:21 41.211682 -101.129736 293 8154ft 123kts
05-Feb-18 17:22 41.220812 -101.172604 284 8219ft 122kts
05-Feb-18 17:23 41.220903 -101.219911 265 8152ft 134kts
05-Feb-18 17:24 41.208119 -101.267403 259 8129ft 137kts
05-Feb-18 17:25 41.203018 -101.315167 274 8146ft 129kts
05-Feb-18 17:26 41.190307 -101.357650 244 8114ft 143kts
05-Feb-18 17:27 41.177049 -101.404152 269 8099ft 131kts
05-Feb-18 17:28 41.169127 -101.451341 265 8118ft 131kts
05-Feb-18 17:29 41.164097 -101.497994 273 8137ft 126kts
05-Feb-18 17:30 41.154840 -101.544845 266 8188ft 135kts
05-Feb-18 17:31 41.147124 -101.593744 265 8268ft 138kts
05-Feb-18 17:32 41.136853 -101.643426 266 8330ft 139kts
05-Feb-18 17:33 41.127337 -101.694206 254 8290ft 149kts
05-Feb-18 17:34 41.114928 -101.745431 263 8301ft 145kts
05-Feb-18 17:35 41.103370 -101.796794 259 8327ft 146kts
05-Feb-18 17:36 41.092417 -101.848840 262 8302ft 147kts
05-Feb-18 17:37 41.081242 -101.900601 264 8319ft 145kts
05-Feb-18 17:38 41.071022 -101.952650 263 8308ft 146kts
05-Feb-18 17:39 41.059856 -102.004600 264 8307ft 145kts
05-Feb-18 17:40 41.052837 -102.056813 266 8296ft 145kts
05-Feb-18 17:41 41.043317 -102.109019 263 8307ft 145kts
05-Feb-18 17:42 41.033575 -102.161033 268 8293ft 144kts
05-Feb-18 17:43 41.024543 -102.213143 258 8291ft 148kts
05-Feb-18 17:44 41.011132 -102.264926 261 8267ft 148kts
05-Feb-18 17:45 41.000386 -102.317373 262 8265ft 147kts
05-Feb-18 17:46 40.989625 -102.369704 263 8252ft 147kts
05-Feb-18 17:47 40.979514 -102.421824 267 8243ft 145kts
05-Feb-18 17:48 40.970390 -102.474004 260 8237ft 148kts
05-Feb-18 17:49 40.957774 -102.526121 261 8218ft 148kts
05-Feb-18 17:50 40.944999 -102.577773 259 8046ft 151kts
05-Feb-18 17:51 40.932426 -102.628827 257 7937ft 142kts
05-Feb-18 17:52 40.923872 -102.677408 270 7954ft 132kts
05-Feb-18 17:53 40.918318 -102.725502 266 8000ft 134kts
05-Feb-18 17:54 40.909387 -102.773515 263 8080ft 135kts
05-Feb-18 17:55 40.900305 -102.821717 264 8137ft 134kts
05-Feb-18 17:56 40.889113 -102.868420 260 8036ft 138kts
05-Feb-18 17:57 40.878623 -102.916532 264 7971ft 135kts
05-Feb-18 17:58 40.869564 -102.964147 263 7931ft 134kts
05-Feb-18 17:59 40.859785 -103.011603 260 7882ft 134kts
05-Feb-18 18:00 40.851674 -103.058544 262 7806ft 136kts
05-Feb-18 18:01 40.839328 -103.103936 260 7915ft 132kts
05-Feb-18 18:02 40.829268 -103.149400 268 8067ft 128kts
05-Feb-18 18:03 40.819453 -103.195934 260 8118ft 135kts
05-Feb-18 18:04 40.806840 -103.243118 257 8107ft 140kts
05-Feb-18 18:05 40.790229 -103.289841 255 8145ft 140kts
05-Feb-18 18:06 40.776595 -103.338184 259 8102ft 142kts
05-Feb-18 18:07 40.762359 -103.387106 253 8077ft 145kts
05-Feb-18 18:08 40.743708 -103.434583 245 8050ft 149kts
05-Feb-18 18:09 40.722239 -103.480786 251 8033ft 146kts
05-Feb-18 18:10 40.704095 -103.528424 252 8014ft 145kts
05-Feb-18 18:11 40.671660 -103.565381 227 7933ft 158kts
05-Feb-18 18:12 40.638753 -103.602918 233 7913ft 157kts
05-Feb-18 18:13 40.609438 -103.644905 234 8009ft 155kts
05-Feb-18 18:14 40.577778 -103.684268 231 8063ft 158kts
05-Feb-18 18:15 40.547840 -103.724981 241 8147ft 153kts
05-Feb-18 18:16 40.525340 -103.772280 247 8110ft 155kts
05-Feb-18 18:17 40.500028 -103.818993 242 8084ft 157kts
05-Feb-18 18:18 40.477014 -103.867087 243 8046ft 157kts
05-Feb-18 18:19 40.442759 -103.905015 237 7964ft 162kts
05-Feb-18 18:20 40.417762 -103.950071 242 8120ft 150kts
05-Feb-18 18:21 40.392278 -103.994792 241 8089ft 156kts
05-Feb-18 18:22 40.362172 -104.036839 251 8032ft 154kts
05-Feb-18 18:23 40.332931 -104.078750 225 8075ft 160kts
05-Feb-18 18:24 40.291436 -104.102131 200 8074ft 166kts
05-Feb-18 18:25 40.251113 -104.129794 222 8043ft 163kts
05-Feb-18 18:26 40.220274 -104.169429 246 8091ft 152kts
05-Feb-18 18:27 40.211148 -104.219704 269 8177ft 139kts
05-Feb-18 18:28 40.187058 -104.263606 227 8157ft 162kts
05-Feb-18 18:29 40.166622 -104.310787 274 7970ft 152kts
05-Feb-18 18:30 40.162605 -104.361092 274 7917ft 129kts
05-Feb-18 18:31 40.158593 -104.400456 274 8032ft 105kts
05-Feb-18 18:32 40.165470 -104.436158 274 7922ft 100kts
05-Feb-18 18:34 40.167721 -104.469925 268 7839ft 92kts
05-Feb-18 18:35 40.170777 -104.501328 272 7893ft 86kts
05-Feb-18 18:36 40.177911 -104.530410 271 7988ft 80kts
05-Feb-18 18:37 40.182713 -104.558723 264 8092ft 76kts
05-Feb-18 18:38 40.184793 -104.587010 264 8129ft 82kts
05-Feb-18 18:39 40.187999 -104.618138 262 8136ft 87kts
05-Feb-18 18:40 40.189898 -104.651313 268 8108ft 96kts
05-Feb-18 18:41 40.188690 -104.684598 218 8078ft 93kts
05-Feb-18 18:42 40.162664 -104.707564 215 8055ft 117kts
05-Feb-18 18:43 40.132855 -104.728342 213 8161ft 124kts
05-Feb-18 18:44 40.100461 -104.749667 212 8206ft 133kts
05-Feb-18 18:45 40.066106 -104.771566 213 7783ft 144kts
05-Feb-18 18:46 40.031726 -104.798989 217 7180ft 144kts
05-Feb-18 18:47 40.000271 -104.824277 212 6950ft 119kts
05-Feb-18 18:48 39.969892 -104.833467 187 7019ft 118kts
05-Feb-18 18:49 39.935767 -104.838286 182 7168ft 127kts
05-Feb-18 18:50 39.897916 -104.842695 199 7148ft 149kts
05-Feb-18 18:51 39.859877 -104.868703 208 7136ft 159kts
05-Feb-18 18:52 39.831200 -104.890645 234 6886ft 103kts
05-Feb-18 18:53 39.839726 -104.928100 294 6995ft 114kts
05-Feb-18 18:54 39.835428 -104.972435 268 7246ft 138kts
05-Feb-18 18:55 39.853037 -105.010115 326 6854ft 136kts
05-Feb-18 18:56 39.877958 -105.044221 314 6142ft 115kts
05-Feb-18 18:57 39.890443 -105.069899 305 5935ft 78kts
05-Feb-18 18:58 39.897811 -105.095241 301 5866ft 74kts
05-Feb-18 18:59 39.905658 -105.109043 48 5672ft 2kts
05-Feb-18 19:00 39.906024 -105.108626 35 5672ft 0kts
05-Feb-18 19:01 39.906024 -105.108626 34 5672ft 0kts
05-Feb-18 19:02 39.906991 -105.109949 346 5672ft 11kts

Navigation Log

Ident Type
Flight plan parsing failed, navigation log unavailable